createdAt,value
2022-12-09T00:02:15.842Z,88.96
2022-12-09T00:04:45.398Z,88.69
2022-12-09T00:07:15.164Z,88.68
2022-12-09T00:09:44.684Z,88.81
2022-12-09T00:12:13.665Z,88.47
2022-12-09T00:14:44.266Z,88.42
2022-12-09T00:17:13.463Z,88.55
2022-12-09T00:19:42.931Z,88.73
2022-12-09T00:22:11.885Z,88.97
2022-12-09T00:24:40.931Z,88.94
2022-12-09T00:27:10.086Z,89.27
2022-12-09T00:29:39.192Z,89.17
2022-12-09T00:32:10.862Z,89.04
2022-12-09T00:34:40.278Z,89.08
2022-12-09T00:37:10.211Z,89.26
2022-12-09T00:39:39.104Z,88.89
2022-12-09T00:42:33.003Z,89.06
2022-12-09T00:45:02.435Z,89.16
2022-12-09T00:47:35.366Z,89.10
2022-12-09T00:50:05.487Z,88.61
2022-12-09T00:52:39.323Z,88.58
2022-12-09T00:55:12.424Z,89.33
2022-12-09T00:57:41.782Z,88.87
2022-12-09T01:00:12.437Z,89.08
2022-12-09T01:02:43.140Z,88.99
2022-12-09T01:05:13.808Z,88.89
2022-12-09T01:07:46.066Z,88.95
2022-12-09T01:10:15.471Z,89.41
2022-12-09T01:12:45.006Z,89.40
2022-12-09T01:15:14.059Z,89.52
2022-12-09T01:17:44.069Z,89.69
2022-12-09T01:20:12.617Z,89.66
2022-12-09T01:22:40.843Z,89.89
2022-12-09T01:25:09.845Z,90.84
2022-12-09T01:27:38.107Z,91.02
2022-12-09T01:30:08.158Z,91.56
2022-12-09T01:32:36.616Z,90.98
2022-12-09T01:35:06.910Z,90.67
2022-12-09T01:37:35.275Z,90.56
2022-12-09T01:40:07.777Z,90.55
2022-12-09T01:42:36.127Z,90.77
2022-12-09T01:45:40.141Z,90.10
2022-12-09T01:48:11.553Z,90.24
2022-12-09T01:50:48.375Z,89.89
2022-12-09T01:53:17.408Z,89.71
2022-12-09T01:55:45.989Z,89.65
2022-12-09T01:58:15.008Z,89.46
2022-12-09T02:00:43.907Z,89.18
2022-12-09T02:03:12.764Z,89.14
2022-12-09T02:05:41.249Z,88.97
2022-12-09T02:08:13.722Z,89.07
2022-12-09T02:10:50.749Z,89.17
2022-12-09T02:13:26.883Z,89.28
2022-12-09T02:15:59.598Z,89.41
2022-12-09T02:18:33.832Z,89.19
2022-12-09T02:21:04.578Z,89.61
2022-12-09T02:23:39.947Z,89.52
2022-12-09T02:26:18.599Z,89.47
2022-12-09T02:28:59.187Z,89.45
2022-12-09T02:31:45.462Z,89.73
2022-12-09T02:34:19.017Z,89.76
2022-12-09T02:36:57.890Z,89.54
2022-12-09T02:39:30.546Z,89.17
2022-12-09T02:41:59.599Z,89.07
2022-12-09T02:44:28.586Z,89.15
2022-12-09T02:46:57.557Z,88.99
2022-12-09T02:49:28.102Z,89.42
2022-12-09T02:51:57.068Z,89.55
2022-12-09T02:54:27.045Z,89.69
2022-12-09T02:56:57.822Z,89.71
2022-12-09T02:59:28.847Z,89.61
2022-12-09T03:02:03.311Z,89.78
2022-12-09T03:04:33.216Z,89.88
2022-12-09T03:07:09.072Z,89.65
2022-12-09T03:09:40.681Z,89.83
2022-12-09T03:12:09.845Z,89.79
2022-12-09T03:14:42.056Z,89.60
2022-12-09T03:17:14.955Z,90.24
2022-12-09T03:19:47.356Z,89.89
2022-12-09T03:22:20.166Z,89.83
2022-12-09T03:24:51.531Z,89.62
2022-12-09T03:27:23.593Z,90.15
2022-12-09T03:29:53.276Z,89.98
2022-12-09T03:32:25.635Z,90.18
2022-12-09T03:34:59.213Z,90.08
2022-12-09T03:37:27.918Z,89.66
2022-12-09T03:39:57.525Z,89.79
2022-12-09T03:42:29.739Z,89.81
2022-12-09T03:45:01.146Z,89.72
2022-12-09T03:47:33.371Z,90.21
2022-12-09T03:50:03.066Z,90.12
2022-12-09T03:52:34.158Z,90.43
2022-12-09T03:55:06.881Z,90.82
2022-12-09T03:57:36.639Z,90.79
2022-12-09T04:00:06.931Z,90.94
2022-12-09T04:02:40.768Z,90.99
2022-12-09T04:05:11.194Z,90.95
2022-12-09T04:07:39.739Z,91.12
2022-12-09T04:10:09.458Z,91.50
2022-12-09T04:12:40.997Z,91.39
2022-12-09T04:15:10.532Z,91.50
2022-12-09T04:17:38.674Z,91.49
2022-12-09T04:20:08.199Z,91.19
2022-12-09T04:22:38.136Z,91.35
2022-12-09T04:25:07.056Z,91.23
2022-12-09T04:27:35.227Z,91.27
2022-12-09T04:30:03.574Z,91.21
2022-12-09T04:32:33.738Z,91.23
2022-12-09T04:35:02.218Z,90.67
2022-12-09T04:37:30.332Z,90.94
2022-12-09T04:39:59.651Z,90.78
2022-12-09T04:42:29.305Z,90.59
2022-12-09T04:44:57.414Z,91.33
2022-12-09T04:47:25.473Z,91.59
2022-12-09T04:49:53.494Z,91.40
2022-12-09T04:52:22.724Z,91.94
2022-12-09T04:54:51.381Z,91.60
2022-12-09T04:57:20.894Z,91.20
2022-12-09T04:59:48.973Z,91.75
2022-12-09T05:02:17.039Z,91.23
2022-12-09T05:04:47.035Z,91.44
2022-12-09T05:07:15.603Z,91.26
2022-12-09T05:09:43.853Z,91.40
2022-12-09T05:12:12.070Z,91.34
2022-12-09T05:14:41.697Z,91.26
2022-12-09T05:17:10.250Z,91.12
2022-12-09T05:19:38.371Z,91.57
2022-12-09T05:22:06.492Z,91.31
2022-12-09T05:24:34.888Z,91.13
2022-12-09T05:27:03.260Z,91.51
2022-12-09T05:29:31.538Z,91.54
2022-12-09T05:32:01.087Z,91.44
2022-12-09T05:34:29.924Z,91.68
2022-12-09T05:36:58.409Z,92.09
2022-12-09T05:39:26.738Z,92.03
2022-12-09T05:41:54.963Z,91.61
2022-12-09T05:44:23.250Z,92.03
2022-12-09T05:46:51.457Z,91.88
2022-12-09T05:49:21.240Z,92.64
2022-12-09T05:51:49.661Z,92.30
2022-12-09T05:54:17.959Z,92.47
2022-12-09T05:56:48.303Z,92.18
2022-12-09T05:59:17.073Z,91.97
2022-12-09T06:01:45.187Z,91.90
2022-12-09T06:04:13.736Z,91.86
2022-12-09T06:06:43.575Z,91.65
2022-12-09T06:09:12.479Z,91.66
2022-12-09T06:11:41.821Z,91.67
2022-12-09T06:14:11.364Z,91.08
2022-12-09T06:16:40.054Z,91.06
2022-12-09T06:19:08.800Z,91.30
2022-12-09T06:21:40.918Z,91.12
2022-12-09T06:24:11.263Z,91.12
2022-12-09T06:26:39.419Z,91.17
2022-12-09T06:29:07.642Z,91.01
2022-12-09T06:31:35.827Z,91.49
2022-12-09T06:34:04.525Z,91.33
2022-12-09T06:36:33.298Z,91.11
2022-12-09T06:39:09.964Z,90.51
2022-12-09T06:41:42.151Z,90.80
2022-12-09T06:44:14.809Z,90.65
2022-12-09T06:46:47.970Z,90.48
2022-12-09T06:49:16.516Z,90.67
2022-12-09T06:51:44.727Z,91.05
2022-12-09T06:54:13.474Z,91.22
2022-12-09T06:56:43.098Z,91.02
2022-12-09T06:59:11.896Z,90.67
2022-12-09T07:01:40.819Z,90.60
2022-12-09T07:04:09.373Z,90.51
2022-12-09T07:06:39.294Z,90.67
2022-12-09T07:09:09.127Z,90.89
2022-12-09T07:11:38.546Z,90.51
2022-12-09T07:14:08.254Z,90.34
2022-12-09T07:16:37.487Z,90.32
2022-12-09T07:19:06.238Z,90.37
2022-12-09T07:21:35.215Z,90.18
2022-12-09T07:24:04.705Z,90.26
2022-12-09T07:26:33.646Z,90.24
2022-12-09T07:29:03.821Z,90.07
2022-12-09T07:31:34.460Z,90.03
2022-12-09T07:34:03.129Z,89.88
2022-12-09T07:36:33.631Z,90.08
2022-12-09T07:39:03.261Z,90.47
2022-12-09T07:41:31.713Z,90.25
2022-12-09T07:43:59.957Z,90.59
2022-12-09T07:46:28.757Z,90.25
2022-12-09T07:48:58.982Z,90.51
2022-12-09T07:51:29.573Z,90.57
2022-12-09T07:53:58.035Z,90.11
2022-12-09T07:56:28.421Z,90.60
2022-12-09T07:58:57.451Z,90.43
2022-12-09T08:01:28.489Z,90.37
2022-12-09T08:03:58.480Z,90.41
2022-12-09T08:06:28.604Z,90.56
2022-12-09T08:08:59.570Z,90.88
2022-12-09T08:11:29.520Z,90.67
2022-12-09T08:13:58.900Z,90.85
2022-12-09T08:16:27.885Z,90.84
2022-12-09T08:18:59.278Z,90.46
2022-12-09T08:21:30.625Z,90.18
2022-12-09T08:24:01.563Z,90.97
2022-12-09T08:26:32.246Z,90.97
2022-12-09T08:29:01.921Z,91.16
2022-12-09T08:31:38.815Z,90.73
2022-12-09T08:34:15.296Z,90.51
2022-12-09T08:36:50.860Z,90.12
2022-12-09T08:39:20.298Z,90.37
2022-12-09T08:41:49.685Z,90.56
2022-12-09T08:44:20.278Z,90.84
2022-12-09T08:46:51.163Z,91.04
2022-12-09T08:49:24.506Z,91.09
2022-12-09T08:51:54.814Z,90.74
2022-12-09T08:54:25.753Z,91.11
2022-12-09T08:56:56.385Z,90.94
2022-12-09T08:59:26.227Z,91.57
2022-12-09T09:02:02.968Z,91.71
2022-12-09T09:04:34.169Z,91.71
2022-12-09T09:07:03.917Z,91.75
2022-12-09T09:09:34.026Z,91.79
2022-12-09T09:12:03.377Z,91.38
2022-12-09T09:14:33.433Z,91.65
2022-12-09T09:17:02.727Z,91.34
2022-12-09T09:19:34.299Z,91.67
2022-12-09T09:22:03.794Z,91.90
2022-12-09T09:24:41.755Z,92.06
2022-12-09T09:27:14.208Z,91.97
2022-12-09T09:29:43.229Z,91.74
2022-12-09T09:32:13.398Z,91.80
2022-12-09T09:34:50.778Z,92.33
2022-12-09T09:37:25.228Z,92.16
2022-12-09T09:39:59.079Z,92.46
2022-12-09T09:42:35.780Z,92.45
2022-12-09T09:45:07.458Z,92.17
2022-12-09T09:47:40.774Z,92.72
2022-12-09T09:50:28.487Z,93.01
2022-12-09T09:52:58.384Z,93.33
2022-12-09T09:55:33.948Z,92.90
2022-12-09T09:58:11.818Z,92.78
2022-12-09T10:00:46.044Z,93.11
2022-12-09T10:03:19.228Z,93.26
2022-12-09T10:05:52.917Z,92.90
2022-12-09T10:08:34.753Z,92.55
2022-12-09T10:11:18.923Z,92.28
2022-12-09T10:13:52.915Z,92.15
2022-12-09T10:16:26.223Z,92.80
2022-12-09T10:19:08.889Z,92.32
2022-12-09T10:21:43.476Z,92.26
2022-12-09T10:24:21.082Z,91.99
2022-12-09T10:27:00.733Z,91.87
2022-12-09T10:29:42.800Z,91.95
2022-12-09T10:32:17.040Z,92.06
2022-12-09T10:34:54.093Z,91.71
2022-12-09T10:37:35.333Z,91.43
2022-12-09T10:40:17.773Z,91.33
2022-12-09T10:43:06.478Z,90.87
2022-12-09T10:46:15.090Z,91.31
2022-12-09T10:48:33.262Z,91.21
2022-12-09T10:51:06.096Z,91.51
2022-12-09T10:53:37.622Z,91.28
2022-12-09T10:56:17.357Z,91.20
2022-12-09T10:58:46.639Z,91.33
2022-12-09T11:01:17.473Z,90.58
2022-12-09T11:03:50.704Z,91.25
2022-12-09T11:06:24.646Z,91.68
2022-12-09T11:08:58.009Z,91.31
2022-12-09T11:11:41.392Z,91.01
2022-12-09T11:14:24.067Z,90.71
2022-12-09T11:16:54.587Z,90.70
2022-12-09T11:19:35.134Z,90.58
2022-12-09T11:22:29.080Z,90.06
2022-12-09T11:25:19.283Z,90.32
2022-12-09T11:27:51.664Z,89.65
2022-12-09T11:30:23.889Z,90.45
2022-12-09T11:33:02.585Z,89.74
2022-12-09T11:35:37.287Z,89.05
2022-12-09T11:38:18.258Z,89.14
2022-12-09T11:41:02.944Z,88.91
2022-12-09T11:43:38.488Z,88.89
2022-12-09T11:46:18.156Z,89.58
2022-12-09T11:48:54.653Z,89.12
2022-12-09T11:51:27.569Z,89.17
2022-12-09T11:54:03.922Z,88.46
2022-12-09T11:56:35.083Z,89.15
2022-12-09T11:59:08.377Z,89.12
2022-12-09T12:01:47.051Z,88.80
2022-12-09T12:04:19.368Z,88.91
2022-12-09T12:06:50.109Z,88.55
2022-12-09T12:09:26.266Z,88.71
2022-12-09T12:12:03.005Z,88.50
2022-12-09T12:14:32.347Z,88.52
2022-12-09T12:17:09.065Z,88.80
2022-12-09T12:19:41.068Z,88.25
2022-12-09T12:22:35.581Z,87.57
2022-12-09T12:25:17.450Z,87.51
2022-12-09T12:28:02.550Z,88.35
2022-12-09T12:30:36.762Z,88.40
2022-12-09T12:36:17.683Z,88.38
2022-12-09T12:39:02.831Z,88.64
2022-12-09T12:41:39.518Z,88.24
2022-12-09T12:44:41.881Z,88.57
2022-12-09T12:47:16.875Z,88.42
2022-12-09T12:49:56.154Z,88.22
2022-12-09T12:55:48.107Z,88.16
2022-12-09T12:58:24.984Z,88.22
2022-12-09T13:01:05.259Z,88.32
2022-12-09T13:03:40.584Z,88.07
2022-12-09T13:06:13.064Z,88.07
2022-12-09T13:08:47.480Z,87.68
2022-12-09T13:11:20.953Z,87.87
2022-12-09T13:13:53.030Z,87.43
2022-12-09T13:16:28.965Z,87.45
2022-12-09T13:19:05.985Z,87.76
2022-12-09T13:21:35.800Z,88.29
2022-12-09T13:24:16.157Z,87.69
2022-12-09T13:26:52.398Z,87.19
2022-12-09T13:29:32.478Z,87.86
2022-12-09T13:32:12.110Z,87.57
2022-12-09T13:34:43.165Z,87.45
2022-12-09T13:37:33.152Z,87.17
2022-12-09T13:40:02.763Z,86.96
2022-12-09T13:42:56.718Z,87.56
2022-12-09T13:45:37.409Z,87.70
2022-12-09T13:48:44.904Z,87.60
2022-12-09T13:51:15.500Z,87.58
2022-12-09T13:53:51.294Z,87.32
2022-12-09T13:56:26.938Z,86.89
2022-12-09T13:59:12.814Z,86.99
2022-12-09T14:01:50.228Z,86.93
2022-12-09T14:04:24.828Z,86.42
2022-12-09T14:06:58.269Z,86.10
2022-12-09T14:09:42.121Z,86.14
2022-12-09T14:12:13.271Z,86.61
2022-12-09T14:14:52.751Z,85.72
2022-12-09T14:18:01.396Z,85.84
2022-12-09T14:20:37.766Z,85.96
2022-12-09T14:23:14.989Z,85.89
2022-12-09T14:26:03.018Z,85.30
2022-12-09T14:28:52.915Z,85.46
2022-12-09T14:32:00.396Z,85.21
2022-12-09T14:34:41.329Z,85.22
2022-12-09T14:37:36.844Z,84.46
2022-12-09T14:40:26.473Z,85.94
2022-12-09T14:43:03.727Z,85.88
2022-12-09T14:45:37.617Z,85.54
2022-12-09T14:48:10.988Z,86.26
2022-12-09T14:50:41.038Z,86.48
2022-12-09T14:53:22.141Z,86.94
2022-12-09T14:56:00.344Z,87.16
2022-12-09T14:58:29.643Z,86.28
2022-12-09T15:01:03.342Z,86.55
2022-12-09T15:03:42.771Z,86.71
2022-12-09T15:06:19.373Z,86.54
2022-12-09T15:08:51.414Z,86.80
2022-12-09T15:11:22.469Z,87.37
2022-12-09T15:13:54.025Z,87.08
2022-12-09T15:16:26.055Z,87.38
2022-12-09T15:18:56.008Z,87.21
2022-12-09T15:21:29.301Z,87.45
2022-12-09T15:24:01.059Z,87.79
2022-12-09T15:26:32.405Z,87.59
2022-12-09T15:29:05.377Z,87.34
2022-12-09T15:31:35.162Z,87.19
2022-12-09T15:34:13.193Z,87.87
2022-12-09T15:36:44.694Z,87.58
2022-12-09T15:39:20.001Z,87.63
2022-12-09T15:42:10.939Z,87.52
2022-12-09T15:44:44.012Z,87.68
2022-12-09T15:47:16.645Z,87.92
2022-12-09T15:49:53.470Z,87.07
2022-12-09T15:52:25.127Z,87.91
2022-12-09T15:54:58.865Z,87.75
2022-12-09T15:57:29.875Z,87.86
2022-12-09T15:59:59.892Z,87.26
2022-12-09T16:02:30.201Z,87.22
2022-12-09T16:05:01.822Z,87.79
2022-12-09T16:07:32.914Z,86.90
2022-12-09T16:10:10.995Z,87.25
2022-12-09T16:12:41.452Z,87.87
2022-12-09T16:15:13.010Z,87.63
2022-12-09T16:17:53.953Z,87.67
2022-12-09T16:20:33.936Z,86.92
2022-12-09T16:23:03.530Z,87.48
2022-12-09T16:25:39.272Z,87.67
2022-12-09T16:28:08.874Z,87.32
2022-12-09T16:30:46.499Z,87.23
2022-12-09T16:33:18.768Z,87.19
2022-12-09T16:35:56.772Z,87.02
2022-12-09T16:38:26.258Z,86.50
2022-12-09T16:41:10.961Z,86.53
2022-12-09T16:43:57.585Z,86.52
2022-12-09T16:46:41.390Z,87.24
2022-12-09T16:49:10.399Z,87.16
2022-12-09T16:51:40.107Z,87.14
2022-12-09T16:54:20.174Z,86.81
2022-12-09T16:56:52.059Z,87.05
2022-12-09T16:59:21.238Z,86.73
2022-12-09T17:01:50.453Z,87.27
2022-12-09T17:04:21.146Z,86.35
2022-12-09T17:06:50.138Z,86.53
2022-12-09T17:09:19.345Z,87.45
2022-12-09T17:11:49.408Z,86.77
2022-12-09T17:14:19.886Z,86.84
2022-12-09T17:16:49.249Z,86.97
2022-12-09T17:19:23.692Z,86.32
2022-12-09T17:21:52.599Z,86.21
2022-12-09T17:24:22.091Z,86.02
2022-12-09T17:26:50.998Z,86.06
2022-12-09T17:29:21.531Z,86.35
2022-12-09T17:31:52.105Z,86.71
2022-12-09T17:34:24.843Z,86.75
2022-12-09T17:36:55.181Z,86.72
2022-12-09T17:39:24.894Z,86.74
2022-12-09T17:41:54.079Z,87.10
2022-12-09T17:44:25.018Z,87.20
2022-12-09T17:46:58.823Z,86.89
2022-12-09T17:49:28.535Z,87.39
2022-12-09T17:52:01.370Z,87.32
2022-12-09T17:54:30.518Z,87.20
2022-12-09T17:56:59.617Z,87.68
2022-12-09T17:59:30.189Z,87.81
2022-12-09T18:02:03.805Z,87.42
2022-12-09T18:04:33.252Z,87.48
2022-12-09T18:07:02.368Z,87.20
2022-12-09T18:09:31.388Z,87.38
2022-12-09T18:12:00.215Z,87.11
2022-12-09T18:14:31.147Z,87.85
2022-12-09T18:17:01.148Z,86.98
2022-12-09T18:19:30.499Z,87.56
2022-12-09T18:21:59.744Z,87.89
2022-12-09T18:24:29.612Z,87.48
2022-12-09T18:26:58.704Z,87.41
2022-12-09T18:29:28.209Z,86.96
2022-12-09T18:32:02.304Z,87.09
2022-12-09T18:34:33.004Z,86.93
2022-12-09T18:37:02.256Z,87.21
2022-12-09T18:39:31.458Z,86.58
2022-12-09T18:42:00.348Z,87.41
2022-12-09T18:44:29.346Z,87.41
2022-12-09T18:46:58.133Z,86.65
2022-12-09T18:49:28.850Z,87.27
2022-12-09T18:51:57.658Z,87.56
2022-12-09T18:54:28.290Z,86.88
2022-12-09T18:57:01.837Z,86.33
2022-12-09T18:59:31.551Z,86.90
2022-12-09T19:02:00.903Z,86.17
2022-12-09T19:04:35.017Z,86.66
2022-12-09T19:07:04.323Z,86.45
2022-12-09T19:09:35.156Z,86.95
2022-12-09T19:12:38.299Z,86.79
2022-12-09T19:14:54.546Z,87.42
2022-12-09T19:17:23.644Z,86.65
2022-12-09T19:19:54.327Z,86.87
2022-12-09T19:22:23.167Z,86.69
2022-12-09T19:24:52.166Z,86.73
2022-12-09T19:27:21.363Z,86.14
2022-12-09T19:29:50.377Z,86.71
2022-12-09T19:32:51.429Z,85.40
2022-12-09T19:35:10.641Z,86.24
2022-12-09T19:37:39.962Z,86.25
2022-12-09T19:40:11.030Z,86.15
2022-12-09T19:43:05.399Z,85.88
2022-12-09T19:45:35.212Z,85.90
2022-12-09T19:48:04.517Z,86.28
2022-12-09T19:50:36.682Z,86.26
2022-12-09T19:53:05.563Z,86.18
2022-12-09T19:55:36.207Z,86.12
2022-12-09T19:58:04.968Z,85.72
2022-12-09T20:00:39.691Z,86.04
2022-12-09T20:03:10.741Z,85.92
2022-12-09T20:05:48.775Z,86.41
2022-12-09T20:08:17.877Z,85.65
2022-12-09T20:10:47.783Z,85.76
2022-12-09T20:13:17.384Z,86.44
2022-12-09T20:15:46.596Z,85.63
2022-12-09T20:18:15.794Z,85.74
2022-12-09T20:20:48.991Z,86.12
2022-12-09T20:23:18.392Z,86.16
2022-12-09T20:25:47.282Z,86.07
2022-12-09T20:28:16.898Z,85.29
2022-12-09T20:30:46.187Z,84.79
2022-12-09T20:33:15.489Z,85.48
2022-12-09T20:35:46.024Z,85.45
2022-12-09T20:38:17.167Z,85.10
2022-12-09T20:40:46.262Z,85.38
2022-12-09T20:43:15.198Z,85.13
2022-12-09T20:45:44.508Z,85.44
2022-12-09T20:48:13.501Z,85.79
2022-12-09T20:50:51.251Z,85.43
2022-12-09T20:53:24.339Z,84.68
2022-12-09T20:55:57.899Z,85.12
2022-12-09T20:58:27.038Z,85.38
2022-12-09T21:00:55.965Z,84.87
2022-12-09T21:03:25.051Z,85.12
2022-12-09T21:05:59.038Z,85.98
2022-12-09T21:08:31.759Z,86.19
2022-12-09T21:11:05.322Z,86.80
2022-12-09T21:13:37.489Z,86.88
2022-12-09T21:16:08.154Z,86.80
2022-12-09T21:18:37.693Z,86.90
2022-12-09T21:21:07.543Z,87.32
2022-12-09T21:23:39.102Z,86.91
2022-12-09T21:26:11.372Z,87.23
2022-12-09T21:28:44.566Z,87.82
2022-12-09T21:31:18.348Z,88.46
2022-12-09T21:33:48.490Z,88.47
2022-12-09T21:36:18.594Z,87.96
2022-12-09T21:38:49.020Z,87.45
2022-12-09T21:41:21.827Z,87.96
2022-12-09T21:43:50.711Z,87.15
2022-12-09T21:46:22.291Z,87.56
2022-12-09T21:48:54.239Z,87.12
2022-12-09T21:51:26.604Z,87.36
2022-12-09T21:53:57.754Z,87.81
2022-12-09T21:56:30.943Z,86.85
2022-12-09T21:59:00.655Z,87.05
2022-12-09T22:01:31.620Z,86.93
2022-12-09T22:04:02.427Z,87.25
2022-12-09T22:06:31.833Z,86.69
2022-12-09T22:09:02.999Z,85.98
2022-12-09T22:11:35.588Z,86.04
2022-12-09T22:14:05.231Z,86.68
2022-12-09T22:16:35.839Z,86.81
2022-12-09T22:19:06.324Z,86.25
2022-12-09T22:21:36.884Z,87.05
2022-12-09T22:24:09.575Z,86.91
2022-12-09T22:26:38.626Z,86.66
2022-12-09T22:29:09.039Z,86.25
2022-12-09T22:31:39.850Z,86.81
2022-12-09T22:34:12.641Z,86.88
2022-12-09T22:36:42.497Z,86.25
2022-12-09T22:39:14.867Z,86.67
2022-12-09T22:41:45.968Z,86.50
2022-12-09T22:44:16.543Z,86.11
2022-12-09T22:46:45.843Z,86.16
2022-12-09T22:49:16.784Z,86.56
2022-12-09T22:51:46.087Z,85.75
2022-12-09T22:54:16.617Z,86.21
2022-12-09T22:56:46.019Z,85.76
2022-12-09T22:59:16.300Z,85.89
2022-12-09T23:01:47.897Z,85.70
2022-12-09T23:04:21.912Z,86.38
2022-12-09T23:06:51.802Z,85.26
2022-12-09T23:09:24.270Z,85.82
2022-12-09T23:11:57.072Z,85.90
2022-12-09T23:14:25.940Z,86.06
2022-12-09T23:16:55.261Z,85.58
2022-12-09T23:19:27.242Z,86.00
2022-12-09T23:21:56.339Z,85.51
2022-12-09T23:24:29.840Z,86.40
2022-12-09T23:27:09.058Z,86.06
2022-12-09T23:29:38.476Z,86.22
2022-12-09T23:32:07.368Z,86.53
2022-12-09T23:34:40.150Z,86.62
2022-12-09T23:37:09.350Z,85.83
2022-12-09T23:39:39.676Z,85.83
2022-12-09T23:42:08.875Z,86.31
2022-12-09T23:44:39.252Z,85.71
2022-12-09T23:47:08.704Z,85.46
2022-12-09T23:49:38.006Z,85.95
2022-12-09T23:52:09.890Z,85.82
2022-12-09T23:54:40.398Z,85.54
2022-12-09T23:57:09.782Z,86.02
2022-12-09T23:59:38.830Z,85.85
